Latest Coastal Weather Observations for Hervey Bay

IDQ60701

Issued at 2:42 am EST Friday 5 March 2021 (issued every 10 minutes, with the page automatically refreshed every 10 minutes)

About coastal observations | Map of coastal stations | Coastal observations for QLD | Marine services | Other Formats
Station Details ID: 040405 Name: HERVEY BAY AIRPORT Lat: -25.32 Lon: 152.88 Height: 12.98 m
Data from the previous 72 hours. | See also: Recent months at Hervey Bay
Date/Time
EST
Wind Sea
Height
m
Swell Vis
km
Cloud Weather Temp
°C
Press
MSL
hPa
Rain since
9am
mm
Dir  Spd
kts
Gust
kts
Height
m
Period
s
Dir
05/02:30am SSW 5 6 - - - - 10 Clear - 18.8 1007.8 0.0
05/02:00am SW 5 6 - - - - 10 - - 19.0 1008.0 0.0
05/01:30am SSW 4 6 - - - - 10 - - 19.0 1008.3 0.0
05/01:00am SSW 4 5 - - - - 10 - - 19.3 1008.6 0.0
05/12:30am SW 4 6 - - - - 10 Partly cloudy - 19.6 1008.9 0.0
05/12:00am SW 5 8 - - - - 10 - - 20.0 1009.0 0.0
 
Date/Time
EST
Wind Sea
Height
m
Swell Vis
km
Cloud Weather Temp
°C
Press
MSL
hPa
Rain since
9am
mm
Dir  Spd
kts
Gust
kts
Height
m
Period
s
Dir
04/11:30pm SW 5 7 - - - - 10 Partly cloudy - 20.4 1009.0 0.0
04/11:00pm S 6 8 - - - - 10 Partly cloudy - 22.3 1009.3 0.0
04/10:30pm SE 5 9 - - - - 10 - - 23.5 1009.3 0.0
04/10:00pm SE 7 13 - - - - 10 - - 23.8 1009.5 0.0
04/09:30pm SE 8 13 - - - - 10 - - 24.1 1009.7 0.0
04/09:00pm SE 9 14 - - - - 10 Mostly clear - 24.1 1009.7 0.0
04/08:30pm SE 8 11 - - - - 10 Partly cloudy - 24.0 1009.6 0.0
04/08:00pm SE 7 9 - - - - 10 - - 24.3 1009.7 0.0
04/07:30pm SE 7 11 - - - - 10 - - 24.1 1009.6 0.0
04/07:00pm SE 9 15 - - - - 10 - - 24.4 1009.2 0.0
04/06:30pm SE 9 15 - - - - 10 Partly cloudy - 24.8 1009.1 0.0
04/06:00pm SE 11 17 - - - - 10 - - 25.2 1008.9 0.0
04/05:30pm SE 11 17 - - - - 10 Partly cloudy - 25.9 1008.6 0.0
04/05:00pm SE 11 16 - - - - 10 Partly cloudy - 26.1 1008.4 0.0
04/04:30pm SE 15 22 - - - - 10 Partly cloudy - 27.2 1008.3 0.0
04/04:00pm SE 13 21 - - - - 10 Partly cloudy - 27.1 1008.2 0.0
04/03:30pm ESE 15 20 - - - - 10 Partly cloudy - 27.4 1008.2 0.0
04/03:00pm ESE 15 23 - - - - 10 Cloudy - 27.9 1008.3 0.0
04/02:30pm ESE 16 23 - - - - 10 Partly cloudy - 27.3 1008.5 0.0
04/02:00pm SE 16 24 - - - - 10 Partly cloudy - 27.9 1008.7 0.0
04/01:30pm SE 15 21 - - - - 10 Partly cloudy - 28.3 1008.9 0.0
04/01:00pm ESE 15 23 - - - - 10 Partly cloudy - 28.5 1009.1 0.0
04/12:30pm ESE 16 21 - - - - 10 Partly cloudy - 28.8 1009.4 0.0
04/12:00pm SE 13 20 - - - - 10 Cloudy - 27.3 1009.7 0.0
04/11:30am SE 16 25 - - - - 10 Partly cloudy - 28.6 1009.7 0.0
04/11:00am SE 12 21 - - - - 10 Partly cloudy - 28.1 1010.0 0.0
04/10:30am ESE 15 24 - - - - 10 Partly cloudy - 27.6 1010.1 0.0
04/10:00am ESE 15 23 - - - - 10 - - 28.6 1010.2 0.0
04/09:30am SE 12 19 - - - - 10 Partly cloudy - 26.5 1010.2 0.0
04/09:00am SE 11 21 - - - - 10 Mostly cloudy - 27.0 1009.9 4.4
04/08:30am SE 11 18 - - - - 10 Partly cloudy - 26.7 1009.7 4.4
04/08:00am ESE 11 18 - - - - 10 Partly cloudy - 26.2 1009.5 4.4
04/07:30am SE 11 17 - - - - 10 - - 25.7 1009.5 4.4
04/07:00am ESE 11 15 - - - - 10 Cloudy - 25.4 1009.1 4.4
04/06:30am SE 11 16 - - - - 10 Partly cloudy - 25.0 1008.9 4.4
04/06:00am SE 11 16 - - - - 10 Cloudy - 24.9 1008.8 4.4
04/05:30am SE 11 16 - - - - 10 Partly cloudy - 25.0 1008.8 4.4
04/05:00am SE 9 15 - - - - 10 Partly cloudy - 24.8 1008.6 4.4
04/04:30am SE 8 14 - - - - 10 Partly cloudy - 24.9 1008.4 4.4
04/04:00am SE 9 18 - - - - 10 Cloudy - 25.2 1008.4 4.4
04/03:30am SE 9 15 - - - - 10 Partly cloudy - 25.0 1008.3 4.4
04/03:00am SE 10 17 - - - - 10 Mostly cloudy - 25.1 1008.1 4.4
04/02:30am SE 11 18 - - - - 10 Cloudy - 25.2 1008.0 4.4
04/02:00am ESE 11 15 - - - - 10 Cloudy - 25.6 1008.3 4.4
04/01:30am ESE 12 20 - - - - 10 Cloudy - 25.4 1008.4 4.4
04/01:00am SE 11 18 - - - - 10 Partly cloudy - 25.4 1008.8 4.4
04/12:30am SE 10 18 - - - - 10 Partly cloudy - 25.5 1008.9 4.4
04/12:00am SE 11 17 - - - - 10 Cloudy - 25.4 1008.9 4.4
 
Date/Time
EST
Wind Sea
Height
m
Swell Vis
km
Cloud Weather Temp
°C
Press
MSL
hPa
Rain since
9am
mm
Dir  Spd
kts
Gust
kts
Height
m
Period
s
Dir
03/11:30pm ESE 11 18 - - - - 10 Partly cloudy - 25.2 1009.1 4.4
03/11:00pm ESE 15 19 - - - - 10 Cloudy - 25.5 1009.2 4.4
03/10:30pm ESE 13 17 - - - - 10 Partly cloudy - 25.5 1009.5 4.4
03/10:00pm SE 10 17 - - - - 10 Cloudy - 25.3 1009.6 4.4
03/09:30pm SE 12 19 - - - - 10 Cloudy - 25.2 1009.6 4.4
03/09:00pm SE 9 16 - - - - 10 Cloudy - 25.1 1009.8 4.4
03/08:30pm SE 11 19 - - - - 10 Partly cloudy - 24.9 1009.5 4.4
03/08:00pm SE 11 19 - - - - 10 Partly cloudy - 24.5 1009.1 4.4
03/07:30pm SSE 8 11 - - - - 10 Partly cloudy - 24.1 1009.3 4.4
03/07:00pm SE 11 20 - - - - 9 Partly cloudy - 23.7 1008.5 4.4
03/06:57pm SE 10 20 - - - - 8 Partly cloudy - 23.7 1008.4 4.4
03/06:42pm SE 10 18 - - - - 3 Partly cloudy - 23.4 1008.5 4.4
03/06:30pm SSE 11 18 - - - - 1 Partly cloudy - 23.3 1008.7 3.2
03/06:27pm SSE 10 18 - - - - 2 Partly cloudy - 23.3 1008.7 2.8
03/06:00pm SE 13 21 - - - - 4 Cloudy Rain 24.5 1008.1 0.2
03/05:56pm SE 14 22 - - - - 5 Partly cloudy - 24.8 1008.0 0.0
03/05:30pm ESE 13 20 - - - - 10 Partly cloudy - 26.6 1007.3 0.0
03/05:00pm ESE 12 17 - - - - 10 - - 28.3 1007.0 0.0
03/04:30pm ESE 14 20 - - - - 10 Partly cloudy - 29.1 1007.0 0.0
03/04:00pm SE 13 18 - - - - 10 - - 29.4 1007.0 0.0
03/03:30pm ESE 14 19 - - - - 10 - - 30.1 1007.0 0.0
03/03:00pm ESE 12 17 - - - - 10 - - 30.6 1007.0 0.0
03/02:30pm ESE 12 19 - - - - 10 - - 30.6 1007.2 0.0
03/02:00pm ESE 13 17 - - - - 10 - - 31.5 1007.3 0.0
03/01:30pm ESE 13 18 - - - - 10 - - 31.1 1007.6 0.0
03/01:00pm ESE 12 17 - - - - 10 - - 31.4 1007.9 0.0
03/12:30pm SE 9 14 - - - - 10 - - 31.3 1008.4 0.0
03/12:00pm ESE 9 14 - - - - 10 - - 31.4 1008.7 0.0
03/11:30am E 9 15 - - - - 10 - - 31.4 1009.2 0.0
03/11:00am ESE 9 13 - - - - 10 - - 30.1 1009.6 0.0
03/10:30am E 9 14 - - - - 10 - - 30.5 1009.9 0.0
03/10:00am ESE 10 16 - - - - 10 - - 29.9 1009.9 0.0
03/09:30am SE 8 12 - - - - 10 Partly cloudy - 28.9 1010.2 0.0
03/09:00am SE 9 13 - - - - 10 Mostly clear - 29.0 1010.0 0.0
03/08:30am SE 8 11 - - - - 10 Partly cloudy - 28.4 1009.9 0.0
03/08:00am SE 8 11 - - - - 10 Partly cloudy - 27.5 1009.9 0.0
03/07:30am SSE 6 9 - - - - 10 Partly cloudy - 27.2 1009.6 0.0
03/07:00am S 4 6 - - - - 10 Partly cloudy - 24.5 1009.5 0.0
03/06:30am SSW 4 5 - - - - 10 Partly cloudy - 23.7 1009.4 0.0
03/06:00am SSW 4 5 - - - - 10 Mostly cloudy - 23.3 1009.1 0.0
03/05:30am SSW 4 5 - - - - 10 Partly cloudy - 23.2 1008.9 0.0
03/05:00am SSW 5 6 - - - - 10 Partly cloudy - 23.0 1008.4 0.0
03/04:30am SSW 5 6 - - - - 10 Cloudy - 23.1 1008.3 0.0
03/04:00am SSW 4 5 - - - - 10 Partly cloudy - 23.0 1008.1 0.0
03/03:30am SSW 5 7 - - - - 10 Partly cloudy - 23.1 1008.0 0.0
03/03:00am SSW 5 6 - - - - 10 Mostly cloudy - 23.1 1008.1 0.0
03/02:30am SW 4 4 - - - - 10 - - 22.9 1008.0 0.0
03/02:00am SSW 4 5 - - - - 10 - - 23.2 1008.1 0.0
03/01:30am SSW 5 6 - - - - 10 Partly cloudy - 23.4 1008.3 0.0
03/01:00am SSW 5 6 - - - - 10 Partly cloudy - 23.4 1008.5 0.0
03/12:30am SSW 5 5 - - - - 10 Partly cloudy - 23.4 1008.7 0.0
03/12:00am SSW 4 4 - - - - 10 Mostly clear - 23.1 1008.7 0.0
 
Date/Time
EST
Wind Sea
Height
m
Swell Vis
km
Cloud Weather Temp
°C
Press
MSL
hPa
Rain since
9am
mm
Dir  Spd
kts
Gust
kts
Height
m
Period
s
Dir
02/11:30pm SSW 5 6 - - - - 10 Partly cloudy - 23.2 1008.7 0.0
02/11:00pm ESE 4 5 - - - - 10 - - 23.7 1008.6 0.0
02/10:30pm SE 4 5 - - - - 10 - - 24.3 1008.5 0.0
02/10:00pm ESE 5 5 - - - - 10 - - 25.3 1008.6 0.0
02/09:30pm ENE 5 6 - - - - 10 - - 26.1 1008.7 0.0
02/09:00pm E 5 7 - - - - 10 Partly cloudy - 26.2 1008.7 0.0
02/08:30pm ENE 5 8 - - - - 10 - - 26.4 1008.5 0.0
02/08:00pm ENE 7 10 - - - - 10 - - 26.5 1008.0 0.0
02/07:30pm ENE 7 9 - - - - 10 - - 26.7 1007.9 0.0
02/07:00pm ENE 8 10 - - - - 10 - - 27.1 1007.6 0.0
02/06:30pm E 8 11 - - - - 10 - - 27.6 1007.1 0.0
02/06:00pm E 9 13 - - - - 10 - - 28.4 1006.9 0.0
02/05:30pm E 9 12 - - - - 10 - - 29.7 1006.4 0.0
02/05:00pm E 10 13 - - - - 10 - - 30.1 1006.3 0.0
02/04:30pm E 8 14 - - - - 10 - - 30.8 1006.3 0.0
02/04:00pm ENE 8 11 - - - - 10 - - 30.9 1006.2 0.0
02/03:30pm NE 8 12 - - - - 10 - - 31.4 1006.4 0.0
02/03:00pm NE 8 14 - - - - 10 Mostly clear - 31.9 1006.5 0.0
02/02:30pm ESE 10 15 - - - - 10 - - 32.0 1006.7 0.0
02/02:00pm ESE 11 15 - - - - 10 - - 32.5 1006.8 0.0
02/01:30pm ESE 10 14 - - - - 10 - - 31.5 1007.3 0.0
02/01:00pm E 10 13 - - - - 10 - - 31.8 1007.4 0.0
02/12:30pm ESE 10 14 - - - - 10 - - 31.4 1007.7 0.0
02/12:00pm ESE 9 13 - - - - 10 Mostly cloudy - 30.6 1008.2 0.0
02/11:30am E 10 14 - - - - 10 - - 31.2 1008.6 0.0
02/11:00am E 7 11 - - - - 10 - - 30.0 1009.0 0.0
02/10:30am ESE 7 11 - - - - 10 - - 30.2 1009.3 0.0
02/10:00am ESE 7 10 - - - - 10 - - 29.3 1009.6 0.0
02/09:30am SE 6 9 - - - - 10 - - 28.3 1009.6 0.0
02/09:00am E 6 8 - - - - 10 Mostly cloudy - 28.3 1009.5 0.0
02/08:30am ESE 6 9 - - - - 10 Partly cloudy - 28.4 1009.3 0.0
02/08:00am S 6 9 - - - - 10 - - 26.8 1009.3 0.0
02/07:30am SSW 5 7 - - - - 10 - - 25.8 1009.0 0.0
02/07:00am SSW 6 8 - - - - 10 - - 24.9 1008.8 0.0
02/06:30am SSW 6 8 - - - - 10 Partly cloudy - 23.7 1008.4 0.0
02/06:00am SSW 5 7 - - - - 10 Partly cloudy - 23.6 1008.2 0.0
02/05:30am SW 5 7 - - - - 10 - - 23.6 1007.9 0.0
02/05:00am SW 4 5 - - - - 10 Partly cloudy - 23.8 1007.7 0.0
02/04:30am SW 3 6 - - - - 10 Partly cloudy - 24.2 1007.4 0.0
02/04:00am SSW 2 6 - - - - 10 Partly cloudy - 24.2 1007.3 0.0
02/03:30am SW 4 5 - - - - 10 Partly cloudy - 24.2 1007.4 0.0
02/03:00am SSW 4 6 - - - - 10 Cloudy - 24.3 1007.1 0.0

Other formats

Comma delimited format used in spreadsheet applications
http://www.bom.gov.au/fwo/IDQ60701/IDQ60701.95565.axf

JavaScript Object Notation format (JSON) in row-major order
http://www.bom.gov.au/fwo/IDQ60701/IDQ60701.95565.json

Data quality

Most of these data are generated automatically and are frequently updated. Quality checks on data are not normally performed. It is possible for incorrect values to appear. Refer to information at About Latest Weather Observations and please check the disclaimer before using these data.